Aviation Digital Data Service (ADDS)

Output produced by METARs form (0002 UTC 29 November 2014)
found at http://aviationweather.gov/adds/metars/
 
KLCH 282353Z 15005KT 10SM FEW046 13/12 A3023 RMK AO2 SLP244 T01280117 10178 20128 56006